WMKKVNKT

Guest
Details From WMKK - Kuala Lumpur Intl - Sepang
To VNKT - Kathmandu Tribhuvan Intl
Flight Number -
Tags Generated
Created
Modified
Stats Distance 1,766 nm / 3,270 km
Max Altitude 0 ft / 0 m
Waypoints 5
Social Downloads 1
Likes 0
Share VATSIM

Download

Looking for another format? Having issues loading an existing format? Contact us
Advertisement - Login to hide

Notes

Generated

Route

WMKK GOMAT BIKIK KAM16 VNKT

ID Type Via Altitude Latitude Longitude Leg Dist Tot Dist Heading (true) Name
O WMKK APT - 0 ft / 0 m 2.77828˚ 101.70172˚ - 0 nm - -
GOMAT FIX - 0 ft / 0 m 5.95333˚ 99.93889˚ 217 nm 217 nm 331° / 331° -
BIKIK FIX - 0 ft / 0 m 24.77969˚ 87.79736˚ 1329 nm 1547 nm 330° / 326° -
KAM16 FIX - 0 ft / 0 m 27.67070˚ 85.36706˚ 217 nm 1764 nm 324° / 322° -
O VNKT APT - 0 ft / 0 m 27.68381˚ 85.35342˚ 1 nm 1765 nm 317° / 317° -

Altitude Profile

Advertisement - Login to hide

Weather


0- 5 10 15 20 25 30 35+ Temperature / ° C

Clouds and Precipitation
Forecast for 2017-12-13 00:00 UTC. Updated an hour ago

Ground ~20,000 ft ~40,000 ft Winds

WMKK

Details ICAO WMKK (KUL)
Name Kuala Lumpur Intl - Sepang
Region Malaysia (Peninsular Malaysia)
Timezone Asia/Kuala_Lumpur (UTC+8.0)
Stats Elevation 70 ft / 21 m (AMSL)
Location 2.745578° 101.709913°
Runways 2
Magnetic Variation 0.000° E

METAR

WMKK 122330Z VRB01KT 4000 HZ FEW002 FEW017CB SCT140 BKN280 24/23 Q1011 NOSIG

Decode

TAF

TAF WMKK 122300Z 1300/1406 04005KT 9000 FEW017CB SCT140 BKN280 TEMPO 1300/1304 3000 TSRA FEW016CB SCT020 TEMPO 1307/1311 3000 TSRA FEW016CB SCT020

Decode

Departure Runways

ID Width Length Bearing (true) Bearing (mag) Surface Threshold Offset Overrun Length
14L 197 ft / 60 m 13,577 ft / 4,138 m 146.13° 146.13° Asphalt 500 ft / 152 m 0 ft / 0 m
14R 197 ft / 60 m 13,337 ft / 4,065 m 146.22° 146.22° Asphalt 500 ft / 152 m 0 ft / 0 m
32L 197 ft / 60 m 13,337 ft / 4,065 m 326.22° 326.22° Asphalt 500 ft / 152 m 0 ft / 0 m
32R 197 ft / 60 m 13,577 ft / 4,138 m 326.13° 326.13° Asphalt 500 ft / 152 m 0 ft / 0 m

VNKT

Details ICAO VNKT (KTM)
Name Kathmandu Tribhuvan Intl
Region Nepal
Timezone Asia/Kathmandu (UTC+5.8)
Stats Elevation 4,390 ft / 1,338 m (AMSL)
Location 27.696583° 85.359100°
Runways 1
Magnetic Variation 0.492° E

METAR

VNKT 122350Z 00000KT 4000 BR FEW020 07/05 Q1020 NOSIG

Decode

TAF

TAF VNKT 122300Z 1300/1324 00000KT 3000 BR FEW010 PROB40 1301/1303 1000 BR BECMG 1304/1305 11005KT 5000 BR/HZ FEW015 BECMG 1307/1309 29008KT 8000 FEW020 BECMG 1314/1315 VRB03KT 6000 FEW015

Decode

Destination Runways

ID Width Length Bearing (true) Bearing (mag) Surface Threshold Offset Overrun Length
02 148 ft / 45 m 10,017 ft / 3,053 m 21.50° 21.01° Asphalt 0 ft / 0 m 0 ft / 0 m
20 148 ft / 45 m 10,017 ft / 3,053 m 201.51° 201.02° Asphalt 400 ft / 122 m 0 ft / 0 m

Popular Alternatives